createdAt,value
2018-04-27T00:01:15.808Z,62.57
2018-04-27T00:03:44.383Z,63.00
2018-04-27T00:06:12.595Z,63.32
2018-04-27T00:08:40.721Z,63.91
2018-04-27T00:11:09.631Z,63.94
2018-04-27T00:13:37.789Z,64.13
2018-04-27T00:16:05.926Z,63.59
2018-04-27T00:18:34.413Z,63.78
2018-04-27T00:21:03.383Z,63.73
2018-04-27T00:23:31.517Z,64.04
2018-04-27T00:25:59.744Z,64.02
2018-04-27T00:28:27.902Z,63.70
2018-04-27T00:30:56.925Z,63.75
2018-04-27T00:33:25.063Z,64.22
2018-04-27T00:35:54.276Z,64.23
2018-04-27T00:38:22.439Z,63.97
2018-04-27T00:40:50.606Z,63.42
2018-04-27T00:43:19.085Z,63.13
2018-04-27T00:45:47.231Z,63.82
2018-04-27T00:48:15.370Z,63.65
2018-04-27T00:50:44.437Z,63.79
2018-04-27T00:53:14.191Z,63.71
2018-04-27T00:55:42.330Z,64.45
2018-04-27T00:58:10.461Z,64.34
2018-04-27T01:00:38.627Z,64.75
2018-04-27T01:03:06.762Z,64.65
2018-04-27T01:05:35.216Z,64.31
2018-04-27T01:08:03.376Z,64.68
2018-04-27T01:10:31.527Z,65.43
2018-04-27T01:12:59.680Z,65.92
2018-04-27T01:15:27.828Z,65.76
2018-04-27T01:17:55.976Z,66.04
2018-04-27T01:20:25.328Z,65.55
2018-04-27T01:22:54.260Z,65.40
2018-04-27T01:25:22.403Z,65.88
2018-04-27T01:27:50.528Z,66.72
2018-04-27T01:30:19.162Z,66.57
2018-04-27T01:32:47.466Z,66.19
2018-04-27T01:35:15.607Z,65.97
2018-04-27T01:50:43.847Z,66.99
2018-04-27T01:53:12.135Z,67.35
2018-04-27T01:55:40.292Z,67.53
2018-04-27T01:58:08.429Z,67.77
2018-04-27T02:00:36.577Z,67.60
2018-04-27T02:03:05.589Z,67.68
2018-04-27T02:05:33.929Z,68.37
2018-04-27T02:21:02.074Z,68.90
2018-04-27T02:23:30.407Z,69.01
2018-04-27T02:25:58.890Z,69.05
2018-04-27T02:28:27.026Z,68.97
2018-04-27T02:30:56.052Z,69.06
2018-04-27T02:33:25.176Z,68.77
2018-04-27T02:35:53.264Z,68.61
2018-04-27T02:38:22.148Z,68.53
2018-04-27T02:40:50.316Z,68.48
2018-04-27T02:43:18.415Z,68.32
2018-04-27T02:45:47.083Z,68.72
2018-04-27T02:48:15.668Z,68.77
2018-04-27T02:50:44.743Z,68.67
2018-04-27T02:53:12.886Z,68.62
2018-04-27T02:55:41.892Z,68.57
2018-04-27T02:58:10.008Z,68.26
2018-04-27T03:00:38.103Z,68.35
2018-04-27T03:03:06.202Z,68.45
2018-04-27T03:05:34.424Z,68.93
2018-04-27T03:08:02.510Z,68.88
2018-04-27T03:10:30.606Z,69.04
2018-04-27T03:12:59.325Z,69.46
2018-04-27T03:15:27.439Z,69.01
2018-04-27T03:17:56.135Z,68.43
2018-04-27T03:20:25.102Z,68.80
2018-04-27T03:22:53.216Z,69.18
2018-04-27T03:25:21.931Z,69.24
2018-04-27T03:27:50.036Z,69.42
2018-04-27T03:30:18.152Z,69.70
2018-04-27T03:32:46.375Z,69.87
2018-04-27T03:35:14.490Z,70.01
2018-04-27T03:37:43.629Z,69.99
2018-04-27T03:40:11.718Z,69.99
2018-04-27T03:42:39.813Z,70.20
2018-04-27T03:45:08.248Z,70.02
2018-04-27T03:47:37.252Z,69.98
2018-04-27T03:50:06.148Z,70.17
2018-04-27T03:52:34.283Z,70.09
2018-04-27T03:55:02.391Z,70.10
2018-04-27T03:57:30.624Z,70.35
2018-04-27T04:00:11.491Z,70.45
2018-04-27T04:02:51.399Z,70.76
2018-04-27T04:05:28.121Z,70.57
2018-04-27T04:07:56.213Z,70.48
2018-04-27T04:10:24.339Z,70.40
2018-04-27T04:12:52.461Z,70.55
2018-04-27T04:15:20.572Z,70.76
2018-04-27T04:17:48.700Z,70.84
2018-04-27T04:20:16.879Z,70.33
2018-04-27T04:22:45.543Z,70.35
2018-04-27T04:25:18.606Z,70.33
2018-04-27T04:27:46.697Z,70.03
2018-04-27T04:30:15.081Z,70.22
2018-04-27T04:32:43.203Z,70.78
2018-04-27T04:35:11.322Z,70.64
2018-04-27T04:37:39.415Z,70.10
2018-04-27T04:40:07.520Z,70.02
2018-04-27T04:42:35.610Z,69.79
2018-04-27T04:45:03.810Z,69.71
2018-04-27T04:47:31.979Z,69.31
2018-04-27T04:50:00.070Z,69.68
2018-04-27T04:52:28.225Z,69.42
2018-04-27T04:54:56.291Z,69.30
2018-04-27T04:57:24.415Z,69.25
2018-04-27T04:59:52.515Z,69.45
2018-04-27T05:02:20.679Z,69.17
2018-04-27T05:04:48.784Z,69.04
2018-04-27T05:07:16.871Z,68.61
2018-04-27T05:09:44.991Z,68.47
2018-04-27T05:12:13.097Z,68.43
2018-04-27T05:14:41.216Z,68.84
2018-04-27T05:17:09.461Z,68.50
2018-04-27T05:19:38.450Z,68.68
2018-04-27T05:22:06.589Z,68.50
2018-04-27T05:24:34.680Z,69.12
2018-04-27T05:27:02.779Z,69.13
2018-04-27T05:29:30.931Z,68.63
2018-04-27T05:31:58.997Z,68.59
2018-04-27T05:34:27.112Z,68.09
2018-04-27T05:36:55.223Z,68.33
2018-04-27T05:39:23.330Z,67.95
2018-04-27T05:41:51.493Z,68.24
2018-04-27T05:44:19.575Z,68.10
2018-04-27T05:46:47.670Z,68.16
2018-04-27T05:49:15.785Z,68.33
2018-04-27T05:51:43.882Z,68.33
2018-04-27T05:54:12.051Z,68.30
2018-04-27T05:56:40.141Z,68.01
2018-04-27T05:59:08.236Z,67.83
2018-04-27T06:01:36.330Z,67.56
2018-04-27T06:04:12.807Z,67.50
2018-04-27T06:06:40.926Z,67.54
2018-04-27T06:09:09.026Z,67.22
2018-04-27T06:11:37.137Z,66.71
2018-04-27T06:14:05.522Z,66.99
2018-04-27T06:16:33.631Z,67.30
2018-04-27T06:19:02.061Z,67.29
2018-04-27T06:21:30.137Z,67.20
2018-04-27T06:23:58.218Z,66.35
2018-04-27T06:26:26.343Z,66.80
2018-04-27T06:28:59.810Z,66.47
2018-04-27T06:31:28.231Z,66.15
2018-04-27T06:33:56.331Z,66.13
2018-04-27T06:36:24.455Z,65.99
2018-04-27T06:38:52.572Z,65.83
2018-04-27T06:41:20.668Z,65.36
2018-04-27T06:43:49.378Z,66.07
2018-04-27T06:46:17.482Z,65.56
2018-04-27T06:48:51.298Z,65.43
2018-04-27T06:51:24.969Z,64.94
2018-04-27T06:53:53.066Z,64.53
2018-04-27T06:56:21.188Z,64.89
2018-04-27T06:58:49.310Z,64.25
2018-04-27T07:01:17.415Z,63.83
2018-04-27T07:03:46.365Z,63.53
2018-04-27T07:06:14.474Z,63.63
2018-04-27T07:08:42.599Z,63.63
2018-04-27T07:11:10.699Z,63.93
2018-04-27T07:13:38.805Z,63.31
2018-04-27T07:16:06.911Z,62.39
2018-04-27T07:18:34.991Z,61.84
2018-04-27T07:21:03.356Z,61.38
2018-04-27T07:23:31.435Z,61.59
2018-04-27T07:25:59.607Z,61.29
2018-04-27T07:28:28.392Z,60.61
2018-04-27T07:30:56.487Z,60.45
2018-04-27T07:33:25.044Z,60.74
2018-04-27T07:35:53.153Z,60.64
2018-04-27T07:38:21.236Z,60.75
2018-04-27T07:40:49.364Z,61.25
2018-04-27T07:43:17.471Z,61.19
2018-04-27T07:45:45.907Z,60.83
2018-04-27T07:48:14.011Z,60.48
2018-04-27T07:50:42.119Z,60.55
2018-04-27T07:53:10.203Z,59.08
2018-04-27T07:55:38.283Z,58.34
2018-04-27T07:58:06.379Z,58.31
2018-04-27T08:00:39.428Z,58.04
2018-04-27T08:03:07.515Z,57.60
2018-04-27T08:05:36.411Z,56.41
2018-04-27T08:08:05.259Z,56.31
2018-04-27T08:10:33.355Z,56.14
2018-04-27T08:13:01.454Z,56.52
2018-04-27T08:15:29.555Z,55.95
2018-04-27T08:17:57.901Z,55.85
2018-04-27T08:20:29.671Z,55.30
2018-04-27T08:22:58.230Z,55.47
2018-04-27T08:25:38.012Z,56.57
2018-04-27T08:41:06.122Z,54.44
2018-04-27T08:43:34.240Z,53.93
2018-04-27T08:46:02.417Z,53.10
2018-04-27T08:48:30.496Z,52.68
2018-04-27T08:50:58.600Z,51.55
2018-04-27T08:53:26.695Z,50.55
2018-04-27T08:55:54.800Z,50.71
2018-04-27T08:58:22.901Z,51.19
2018-04-27T09:00:51.000Z,51.23
2018-04-27T09:03:19.129Z,51.22
2018-04-27T09:05:47.244Z,51.15
2018-04-27T09:08:15.355Z,49.92
2018-04-27T09:10:43.466Z,50.06
2018-04-27T09:13:16.519Z,50.31
2018-04-27T09:15:44.671Z,50.25
2018-04-27T09:18:12.776Z,49.92
2018-04-27T09:20:41.646Z,49.61
2018-04-27T09:23:09.803Z,50.17
2018-04-27T09:25:37.859Z,49.99
2018-04-27T09:28:11.408Z,48.85
2018-04-27T09:30:39.502Z,48.96
2018-04-27T09:33:08.554Z,49.53
2018-04-27T09:35:36.674Z,49.47
2018-04-27T09:38:04.746Z,50.06
2018-04-27T09:40:32.852Z,51.26
2018-04-27T09:43:00.954Z,50.68
2018-04-27T09:45:29.043Z,50.48
2018-04-27T09:47:57.157Z,51.39
2018-04-27T09:50:25.236Z,50.68
2018-04-27T09:52:53.383Z,50.36
2018-04-27T09:55:21.507Z,50.01
2018-04-27T09:57:49.599Z,49.73
2018-04-27T10:00:18.483Z,50.21
2018-04-27T10:02:46.584Z,49.87
2018-04-27T10:05:14.702Z,49.16
2018-04-27T10:07:42.831Z,48.52
2018-04-27T10:10:10.917Z,47.90
2018-04-27T10:12:39.035Z,48.08
2018-04-27T10:15:07.212Z,49.02
2018-04-27T10:17:35.246Z,49.87
2018-04-27T10:20:03.357Z,47.84
2018-04-27T10:22:32.221Z,47.68
2018-04-27T10:25:00.404Z,48.64
2018-04-27T10:27:28.421Z,47.22
2018-04-27T10:29:57.699Z,47.56
2018-04-27T10:32:26.230Z,48.24
2018-04-27T10:34:54.363Z,47.32
2018-04-27T10:37:22.469Z,48.55
2018-04-27T10:39:50.584Z,47.56
2018-04-27T10:42:18.677Z,47.62
2018-04-27T10:44:47.159Z,48.08
2018-04-27T10:47:15.257Z,47.83
2018-04-27T10:49:43.765Z,48.47
2018-04-27T10:52:11.885Z,46.54
2018-04-27T10:54:39.991Z,46.75
2018-04-27T10:57:08.601Z,46.93
2018-04-27T10:59:38.081Z,47.22
2018-04-27T11:02:06.324Z,47.36
2018-04-27T11:04:34.432Z,46.96
2018-04-27T11:07:08.176Z,47.86
2018-04-27T11:09:36.272Z,47.49
2018-04-27T11:12:04.381Z,47.88
2018-04-27T11:14:32.471Z,47.78
2018-04-27T11:17:00.632Z,48.14
2018-04-27T11:19:29.596Z,48.71
2018-04-27T11:21:59.788Z,47.85
2018-04-27T11:24:27.894Z,47.49
2018-04-27T11:26:56.015Z,47.85
2018-04-27T11:29:24.103Z,47.73
2018-04-27T11:31:52.224Z,46.42
2018-04-27T11:34:20.336Z,47.48
2018-04-27T11:36:48.469Z,46.28
2018-04-27T11:39:16.566Z,46.05
2018-04-27T11:41:45.200Z,46.80
2018-04-27T11:44:13.294Z,46.01
2018-04-27T11:46:42.159Z,45.55
2018-04-27T11:49:10.255Z,46.83
2018-04-27T11:51:39.153Z,45.53
2018-04-27T11:54:07.442Z,45.64
2018-04-27T11:56:35.516Z,45.19
2018-04-27T11:59:03.643Z,45.02
2018-04-27T12:01:31.713Z,45.88
2018-04-27T12:03:59.839Z,45.81
2018-04-27T12:06:28.003Z,45.16
2018-04-27T12:08:56.131Z,45.68
2018-04-27T12:11:24.219Z,45.52
2018-04-27T12:13:52.321Z,45.81
2018-04-27T12:16:20.408Z,45.16
2018-04-27T12:18:48.574Z,45.76
2018-04-27T12:21:16.693Z,45.93
2018-04-27T12:23:49.737Z,46.14
2018-04-27T12:26:17.842Z,45.41
2018-04-27T12:28:45.967Z,45.44
2018-04-27T12:31:14.262Z,45.54
2018-04-27T12:33:42.301Z,46.12
2018-04-27T12:36:10.377Z,44.92
2018-04-27T12:38:38.467Z,45.21
2018-04-27T12:41:07.761Z,46.31
2018-04-27T12:43:35.831Z,46.14
2018-04-27T12:46:03.956Z,46.48
2018-04-27T12:48:32.733Z,45.77
2018-04-27T12:51:00.812Z,45.97
2018-04-27T12:53:29.264Z,46.47
2018-04-27T12:55:57.627Z,45.96
2018-04-27T12:58:25.689Z,45.20
2018-04-27T13:00:53.777Z,46.09
2018-04-27T13:03:21.880Z,47.41
2018-04-27T13:05:50.037Z,46.11
2018-04-27T13:08:19.035Z,47.06
2018-04-27T13:10:47.196Z,48.31
2018-04-27T13:13:15.267Z,46.10
2018-04-27T13:15:43.386Z,46.82
2018-04-27T13:18:12.171Z,43.29
2018-04-27T13:20:40.240Z,45.98
2018-04-27T13:23:08.362Z,46.95
2018-04-27T13:38:36.467Z,46.59
2018-04-27T13:41:10.222Z,46.07
2018-04-27T13:43:38.545Z,46.19
2018-04-27T13:46:06.670Z,46.92
2018-04-27T13:48:34.794Z,47.64
2018-04-27T13:51:02.918Z,47.71
2018-04-27T13:53:36.620Z,47.71
2018-04-27T13:56:10.477Z,47.10
2018-04-27T13:58:38.574Z,45.88
2018-04-27T14:01:06.667Z,46.88
2018-04-27T14:03:34.780Z,46.67
2018-04-27T14:06:03.054Z,46.80
2018-04-27T14:08:31.280Z,45.91
2018-04-27T14:10:59.364Z,46.00
2018-04-27T14:13:27.490Z,46.02
2018-04-27T14:15:55.576Z,44.07
2018-04-27T14:18:23.683Z,43.65
2018-04-27T14:20:51.784Z,42.72
2018-04-27T14:23:19.950Z,42.69
2018-04-27T14:25:48.234Z,42.14
2018-04-27T14:28:21.740Z,41.71
2018-04-27T14:30:49.855Z,41.15
2018-04-27T14:33:18.106Z,41.04
2018-04-27T14:35:46.181Z,41.22
2018-04-27T14:38:14.276Z,42.59
2018-04-27T14:40:43.067Z,42.80
2018-04-27T14:43:11.155Z,42.72
2018-04-27T14:45:40.096Z,42.46
2018-04-27T14:48:09.674Z,43.12
2018-04-27T14:50:37.795Z,42.82
2018-04-27T14:53:05.872Z,42.91
2018-04-27T14:55:33.968Z,42.44
2018-04-27T14:58:02.061Z,42.69
2018-04-27T15:00:30.181Z,42.79
2018-04-27T15:02:58.301Z,42.75
2018-04-27T15:05:26.395Z,42.74
2018-04-27T15:07:54.511Z,42.62
2018-04-27T15:10:22.614Z,42.56
2018-04-27T15:12:50.717Z,42.48
2018-04-27T15:15:18.825Z,42.43
2018-04-27T15:17:46.974Z,42.55
2018-04-27T15:20:15.325Z,42.74
2018-04-27T15:22:43.445Z,42.71
2018-04-27T15:25:11.598Z,42.58
2018-04-27T15:27:45.219Z,42.80
2018-04-27T15:30:13.323Z,42.73
2018-04-27T15:32:41.410Z,42.91
2018-04-27T15:35:10.781Z,42.86
2018-04-27T15:37:38.865Z,42.74
2018-04-27T15:40:07.015Z,43.24
2018-04-27T15:42:35.713Z,43.48
2018-04-27T15:45:03.791Z,43.80
2018-04-27T15:47:32.914Z,43.57
2018-04-27T15:50:01.032Z,43.07
2018-04-27T15:52:29.287Z,43.48
2018-04-27T15:55:02.857Z,43.99
2018-04-27T15:57:36.917Z,44.10
2018-04-27T16:00:05.086Z,44.57
2018-04-27T16:02:33.179Z,44.91
2018-04-27T16:07:37.735Z,45.10
2018-04-27T16:10:05.840Z,44.90
2018-04-27T16:12:34.035Z,44.82
2018-04-27T16:15:02.119Z,44.82
2018-04-27T16:17:30.211Z,44.99
2018-04-27T16:19:58.932Z,45.31
2018-04-27T16:22:27.125Z,45.03
2018-04-27T16:24:55.284Z,45.64
2018-04-27T16:27:23.356Z,45.54
2018-04-27T16:29:51.465Z,45.72
2018-04-27T16:32:19.561Z,45.38
2018-04-27T16:34:48.193Z,45.65
2018-04-27T16:37:16.317Z,45.66
2018-04-27T16:39:44.717Z,45.64
2018-04-27T16:42:12.803Z,45.61
2018-04-27T16:44:41.520Z,45.75
2018-04-27T16:47:09.642Z,45.77
2018-04-27T16:49:38.027Z,45.89
2018-04-27T16:52:06.144Z,45.06
2018-04-27T16:54:34.294Z,45.39
2018-04-27T16:57:02.340Z,45.29
2018-04-27T16:59:30.458Z,45.26
2018-04-27T17:01:58.573Z,45.38
2018-04-27T17:04:26.649Z,45.10
2018-04-27T17:06:54.761Z,45.34
2018-04-27T17:09:22.866Z,45.45
2018-04-27T17:11:51.009Z,45.57
2018-04-27T17:14:19.114Z,45.38
2018-04-27T17:16:47.398Z,45.27
2018-04-27T17:19:16.227Z,45.37
2018-04-27T17:21:44.915Z,45.21
2018-04-27T17:24:13.984Z,45.47
2018-04-27T17:26:47.529Z,45.69
2018-04-27T17:29:15.648Z,45.61
2018-04-27T17:31:43.755Z,45.35
2018-04-27T17:34:11.847Z,45.54
2018-04-27T17:36:40.034Z,45.53
2018-04-27T17:39:14.163Z,45.61
2018-04-27T17:41:47.780Z,45.85
2018-04-27T17:44:15.890Z,45.73
2018-04-27T17:46:43.988Z,45.55
2018-04-27T17:49:12.108Z,45.14
2018-04-27T17:51:40.198Z,45.39
2018-04-27T17:54:08.648Z,44.72
2018-04-27T17:56:37.076Z,45.41
2018-04-27T18:12:05.306Z,46.10
2018-04-27T18:14:34.486Z,46.08
2018-04-27T18:17:02.639Z,46.02
2018-04-27T18:19:30.762Z,46.25
2018-04-27T18:21:58.874Z,46.62
2018-04-27T18:24:28.007Z,46.57
2018-04-27T18:26:56.958Z,46.69
2018-04-27T18:29:25.205Z,47.08
2018-04-27T18:31:53.341Z,47.25
2018-04-27T18:34:21.957Z,47.65
2018-04-27T18:36:50.957Z,47.86
2018-04-27T18:39:19.167Z,48.09
2018-04-27T18:41:53.054Z,48.14
2018-04-27T18:44:21.507Z,47.94
2018-04-27T18:46:49.584Z,48.18
2018-04-27T18:49:17.721Z,48.17
2018-04-27T18:51:46.323Z,47.97
2018-04-27T18:54:14.424Z,47.79
2018-04-27T18:56:49.693Z,48.05
2018-04-27T18:59:17.776Z,48.09
2018-04-27T19:01:45.904Z,48.18
2018-04-27T19:04:15.775Z,47.73
2018-04-27T19:06:43.865Z,48.03
2018-04-27T19:09:11.953Z,47.84
2018-04-27T19:11:40.067Z,47.96
2018-04-27T19:14:08.848Z,47.64
2018-04-27T19:16:36.948Z,47.15
2018-04-27T19:19:05.047Z,47.53
2018-04-27T19:21:33.300Z,47.41
2018-04-27T19:24:01.444Z,47.23
2018-04-27T19:26:29.533Z,47.06
2018-04-27T19:28:57.643Z,47.43
2018-04-27T19:31:25.724Z,47.53
2018-04-27T19:33:53.828Z,47.52
2018-04-27T19:36:21.936Z,47.70
2018-04-27T19:38:50.043Z,47.74
2018-04-27T19:41:19.035Z,47.75
2018-04-27T19:43:47.193Z,47.82
2018-04-27T19:46:15.254Z,48.04
2018-04-27T19:48:43.426Z,47.99
2018-04-27T19:51:11.547Z,48.22
2018-04-27T19:53:39.884Z,48.43
2018-04-27T19:56:08.979Z,48.57
2018-04-27T19:58:37.115Z,48.74
2018-04-27T20:01:05.195Z,48.85
2018-04-27T20:03:33.312Z,49.13
2018-04-27T20:06:01.437Z,49.43
2018-04-27T20:08:32.933Z,49.75
2018-04-27T20:11:01.674Z,50.07
2018-04-27T20:13:29.756Z,50.18
2018-04-27T20:15:57.852Z,50.35
2018-04-27T20:18:27.016Z,50.39
2018-04-27T20:20:55.015Z,50.46
2018-04-27T20:23:41.493Z,50.59
2018-04-27T20:26:09.671Z,50.85
2018-04-27T20:28:40.812Z,50.91
2018-04-27T20:31:08.887Z,51.05
2018-04-27T20:33:37.345Z,51.07
2018-04-27T20:36:06.403Z,51.08
2018-04-27T20:38:34.810Z,51.11
2018-04-27T20:41:12.377Z,51.08
2018-04-27T20:43:40.440Z,51.02
2018-04-27T20:46:08.530Z,51.24
2018-04-27T20:48:36.668Z,51.20
2018-04-27T20:51:06.494Z,51.36
2018-04-27T20:56:44.485Z,51.21
2018-04-27T20:59:12.599Z,51.43
2018-04-27T21:01:40.685Z,51.48
2018-04-27T21:04:09.536Z,51.56
2018-04-27T21:19:37.661Z,52.63
2018-04-27T21:22:06.703Z,52.48
2018-04-27T21:24:35.603Z,52.62
2018-04-27T21:27:03.775Z,52.72
2018-04-27T21:29:37.532Z,52.52
2018-04-27T21:32:07.105Z,53.07
2018-04-27T21:34:35.211Z,53.70
2018-04-27T21:37:04.217Z,53.39
2018-04-27T21:39:33.147Z,55.00
2018-04-27T21:42:01.235Z,55.78
2018-04-27T21:44:32.442Z,55.45
2018-04-27T21:47:16.314Z,56.09
2018-04-27T21:49:45.304Z,56.45
2018-04-27T21:52:17.067Z,56.39
2018-04-27T21:54:45.895Z,56.89
2018-04-27T21:57:19.723Z,55.04
2018-04-27T21:59:55.430Z,56.45
2018-04-27T22:05:48.939Z,56.22
2018-04-27T22:08:17.643Z,56.76
2018-04-27T22:10:46.579Z,56.79
2018-04-27T22:13:17.143Z,56.88
2018-04-27T22:25:47.081Z,56.83
2018-04-27T22:28:15.179Z,56.67
2018-04-27T22:30:50.812Z,56.24
2018-04-27T22:33:43.249Z,56.14
2018-04-27T22:36:24.040Z,56.26
2018-04-27T22:42:00.322Z,56.13
2018-04-27T22:44:40.292Z,56.33
2018-04-27T22:47:08.433Z,56.92
2018-04-27T22:49:36.511Z,56.68
2018-04-27T22:52:05.195Z,56.48
2018-04-27T22:54:37.283Z,56.98
2018-04-27T22:57:10.992Z,56.54
2018-04-27T22:59:39.908Z,57.12
2018-04-27T23:02:18.649Z,57.38
2018-04-27T23:04:46.735Z,57.17
2018-04-27T23:07:23.497Z,57.87
2018-04-27T23:09:54.309Z,58.02
2018-04-27T23:12:22.416Z,57.27
2018-04-27T23:27:50.528Z,58.11
2018-04-27T23:30:20.130Z,57.68
2018-04-27T23:32:48.337Z,57.73
2018-04-27T23:35:16.427Z,57.82
2018-04-27T23:37:44.525Z,58.11
2018-04-27T23:40:12.663Z,58.09
2018-04-27T23:42:40.751Z,58.08
2018-04-27T23:45:09.616Z,58.36
2018-04-27T23:47:37.735Z,58.63
2018-04-27T23:50:06.291Z,58.81
2018-04-27T23:52:34.420Z,59.05
2018-04-27T23:55:02.555Z,59.24
2018-04-27T23:57:30.651Z,59.51
